Time;durP1;ratioP1;P1;durP2;ratioP2;P2;SDS_P1;SDS_P2;PMS_P1;PMS_P2;Temp;Humidity;BMP_temperature;BMP_pressure;BME280_temperature;BME280_humidity;BME280_pressure;Samples;Min_cycle;Max_cycle;Signal;HPM_P1;HPM_P2
2023/05/05 00:01:34;;;;;;;;;;;16.20;83.10;;;;;;5040781;28;19913;-69
2023/05/05 00:04:00;;;;;;;;;;;16.20;83.00;;;;;;5048313;28;19919;-68
2023/05/05 00:06:27;;;;;;;;;;;16.20;83.10;;;;;;5047978;28;19909;-69
2023/05/05 00:08:52;;;;;;;;;;;16.20;83.30;;;;;;5048293;28;20418;-68
2023/05/05 00:11:18;;;;;;;;;;;16.20;83.20;;;;;;5047835;28;20003;-68
2023/05/05 00:13:44;;;;;;;;;;;16.20;83.00;;;;;;5047478;28;19917;-68
2023/05/05 00:16:09;;;;;;;;;;;16.10;83.20;;;;;;5048008;28;19913;-68
2023/05/05 00:18:35;;;;;;;;;;;16.20;83.40;;;;;;5047866;28;19916;-68
2023/05/05 00:21:00;;;;;;;;;;;16.10;83.30;;;;;;5047732;28;19951;-68
2023/05/05 00:23:26;;;;;;;;;;;16.10;83.20;;;;;;5047642;28;19916;-68
2023/05/05 00:25:51;;;;;;;;;;;16.10;83.20;;;;;;5047838;28;19909;-68
2023/05/05 00:28:17;;;;;;;;;;;16.10;83.30;;;;;;5047978;28;19969;-68
2023/05/05 00:30:42;;;;;;;;;;;16.10;83.30;;;;;;5029685;28;19916;-69
2023/05/05 00:33:08;;;;;;;;;;;16.00;83.20;;;;;;5047220;28;19937;-68
2023/05/05 00:35:33;;;;;;;;;;;16.00;83.30;;;;;;5029928;28;20293;-68
2023/05/05 00:37:59;;;;;;;;;;;16.00;83.30;;;;;;5047948;28;20488;-68
2023/05/05 00:40:25;;;;;;;;;;;16.00;83.40;;;;;;5047894;28;19913;-69
2023/05/05 00:42:51;;;;;;;;;;;16.00;83.30;;;;;;5047544;28;19913;-69
2023/05/05 00:45:17;;;;;;;;;;;16.00;83.50;;;;;;5047681;28;20529;-69
2023/05/05 00:47:50;;;;;;;;;;;16.00;83.50;;;;;;5047317;28;19912;-68
2023/05/05 00:50:26;;;;;;;;;;;16.00;83.20;;;;;;5047535;28;19916;-69
2023/05/05 00:52:53;;;;;;;;;;;15.90;83.20;;;;;;5046792;28;20513;-69
2023/05/05 00:55:19;;;;;;;;;;;16.00;83.20;;;;;;5043290;28;19955;-68
2023/05/05 00:57:44;;;;;;;;;;;15.90;83.20;;;;;;5047218;28;19955;-68
2023/05/05 01:00:10;;;;;;;;;;;15.90;83.30;;;;;;5047683;28;20331;-69
2023/05/05 01:02:37;;;;;;;;;;;15.90;83.30;;;;;;5046996;28;20467;-68
2023/05/05 01:05:03;;;;;;;;;;;15.90;83.30;;;;;;5047535;28;19963;-69
2023/05/05 01:07:40;;;;;;;;;;;15.90;83.80;;;;;;5047266;28;19940;-68
2023/05/05 01:10:13;;;;;;;;;;;15.90;83.20;;;;;;5047227;28;19909;-68
2023/05/05 01:12:51;;;;;;;;;;;15.90;83.30;;;;;;5029040;28;20685;-68
2023/05/05 01:15:31;;;;;;;;;;;15.80;83.20;;;;;;5046548;28;19920;-69
2023/05/05 01:18:00;;;;;;;;;;;15.80;83.30;;;;;;5046808;28;20003;-69
2023/05/05 01:20:26;;;;;;;;;;;15.80;83.20;;;;;;5047013;28;19913;-68
2023/05/05 01:22:57;;;;;;;;;;;15.80;83.30;;;;;;5028224;28;19943;-68
2023/05/05 01:25:29;;;;;;;;;;;15.80;83.30;;;;;;5047082;28;19928;-68
2023/05/05 01:28:07;;;;;;;;;;;15.80;83.30;;;;;;5029099;28;19961;-69
2023/05/05 01:30:55;;;;;;;;;;;15.80;83.30;;;;;;5028931;28;19913;-68
2023/05/05 01:33:23;;;;;;;;;;;15.80;83.40;;;;;;5046433;28;20011;-68
2023/05/05 01:35:51;;;;;;;;;;;15.80;83.40;;;;;;5046912;28;20415;-68
2023/05/05 01:38:20;;;;;;;;;;;15.80;83.50;;;;;;5046525;28;19931;-68
2023/05/05 01:40:47;;;;;;;;;;;15.70;83.40;;;;;;5046404;28;19920;-68
2023/05/05 01:43:16;;;;;;;;;;;15.70;83.40;;;;;;5046219;28;19939;-68
2023/05/05 01:45:42;;;;;;;;;;;15.70;83.50;;;;;;5046600;28;19909;-69
2023/05/05 01:48:08;;;;;;;;;;;15.70;83.50;;;;;;5028576;28;19913;-69
2023/05/05 01:50:35;;;;;;;;;;;15.70;83.50;;;;;;5028692;28;19917;-68
2023/05/05 01:53:02;;;;;;;;;;;15.70;83.50;;;;;;5046106;28;20288;-69
2023/05/05 01:55:28;;;;;;;;;;;15.70;83.70;;;;;;5045819;28;19913;-69
2023/05/05 01:57:54;;;;;;;;;;;15.70;83.70;;;;;;5028366;28;19915;-69
2023/05/05 02:00:21;;;;;;;;;;;15.60;83.70;;;;;;5028685;28;20362;-68
2023/05/05 02:02:47;;;;;;;;;;;15.60;83.50;;;;;;5028004;28;20337;-68
2023/05/05 02:05:14;;;;;;;;;;;15.60;83.70;;;;;;5046245;28;19913;-68
2023/05/05 02:07:40;;;;;;;;;;;15.60;83.80;;;;;;5045957;28;19909;-68
2023/05/05 02:10:06;;;;;;;;;;;15.60;83.80;;;;;;5045626;28;19920;-68
2023/05/05 02:12:32;;;;;;;;;;;15.60;83.80;;;;;;5045363;28;19915;-68
2023/05/05 02:14:59;;;;;;;;;;;15.60;83.90;;;;;;5061154;28;19999;-69
2023/05/05 02:17:25;;;;;;;;;;;15.60;83.80;;;;;;5045414;28;19966;-68
2023/05/05 02:19:51;;;;;;;;;;;15.50;83.90;;;;;;5046165;28;19923;-69
2023/05/05 02:22:17;;;;;;;;;;;15.50;83.80;;;;;;5027573;28;19925;-68
2023/05/05 02:24:42;;;;;;;;;;;15.50;84.00;;;;;;5045718;28;20508;-68
2023/05/05 02:27:09;;;;;;;;;;;15.50;84.00;;;;;;5045802;28;19935;-69
2023/05/05 02:29:38;;;;;;;;;;;15.50;83.90;;;;;;5045566;28;20281;-68
2023/05/05 02:32:24;;;;;;;;;;;15.50;84.10;;;;;;5045700;28;19916;-69
2023/05/05 02:34:50;;;;;;;;;;;15.50;83.90;;;;;;5046038;28;20352;-68
2023/05/05 02:37:18;;;;;;;;;;;15.40;84.00;;;;;;5045858;28;19913;-68
2023/05/05 02:39:57;;;;;;;;;;;15.40;84.20;;;;;;5045944;28;20035;-68
2023/05/05 02:42:24;;;;;;;;;;;15.40;84.10;;;;;;5045724;28;19948;-68
2023/05/05 02:44:50;;;;;;;;;;;15.40;84.00;;;;;;5045355;28;20007;-68
2023/05/05 02:47:16;;;;;;;;;;;15.40;84.30;;;;;;5045759;28;20281;-68
2023/05/05 02:49:41;;;;;;;;;;;15.40;84.50;;;;;;5045714;28;19915;-69
2023/05/05 02:52:07;;;;;;;;;;;15.40;84.30;;;;;;5045190;28;20021;-68
2023/05/05 02:54:33;;;;;;;;;;;15.40;84.30;;;;;;5027105;28;20000;-68
2023/05/05 02:56:58;;;;;;;;;;;15.40;84.60;;;;;;5045324;28;19956;-69
2023/05/05 02:59:39;;;;;;;;;;;15.30;84.40;;;;;;5026026;28;19913;-68
2023/05/05 03:02:23;;;;;;;;;;;15.30;84.50;;;;;;5040186;28;19913;-68
2023/05/05 03:05:18;;;;;;;;;;;15.30;84.50;;;;;;5027810;28;19913;-68
2023/05/05 03:08:06;;;;;;;;;;;15.30;84.90;;;;;;5048178;28;20048;-68
2023/05/05 03:10:40;;;;;;;;;;;15.30;84.80;;;;;;5041902;28;19935;-68
2023/05/05 03:13:08;;;;;;;;;;;15.30;84.90;;;;;;5037790;28;20024;-68
2023/05/05 03:15:36;;;;;;;;;;;15.20;84.70;;;;;;5023027;28;19917;-69
2023/05/05 03:18:02;;;;;;;;;;;15.30;84.60;;;;;;5044497;28;19909;-68
2023/05/05 03:20:28;;;;;;;;;;;15.30;84.70;;;;;;5045131;28;20389;-68
2023/05/05 03:22:54;;;;;;;;;;;15.20;84.40;;;;;;5026832;28;19960;-69
2023/05/05 03:25:19;;;;;;;;;;;15.30;84.50;;;;;;5045079;28;19947;-68
2023/05/05 03:27:45;;;;;;;;;;;15.20;84.40;;;;;;5026748;28;19920;-69
2023/05/05 03:30:11;;;;;;;;;;;15.20;84.50;;;;;;5044615;28;19995;-68
2023/05/05 03:32:36;;;;;;;;;;;15.30;84.40;;;;;;5043847;28;19940;-68
2023/05/05 03:35:02;;;;;;;;;;;15.20;84.50;;;;;;5044997;28;19938;-68
2023/05/05 03:37:27;;;;;;;;;;;15.20;84.50;;;;;;5046229;28;19913;-68
2023/05/05 03:39:53;;;;;;;;;;;15.20;84.50;;;;;;5030461;28;19912;-68
2023/05/05 03:42:18;;;;;;;;;;;15.20;84.60;;;;;;5047946;28;20288;-68
2023/05/05 03:44:44;;;;;;;;;;;15.20;84.60;;;;;;5047966;28;19913;-68
2023/05/05 03:47:10;;;;;;;;;;;15.20;84.60;;;;;;5048122;28;19908;-68
2023/05/05 03:49:36;;;;;;;;;;;15.20;84.50;;;;;;5030322;28;19916;-68
2023/05/05 03:52:02;;;;;;;;;;;15.20;84.60;;;;;;5047951;28;19913;-68
2023/05/05 03:54:27;;;;;;;;;;;15.20;84.80;;;;;;5043970;28;19963;-68
2023/05/05 03:56:53;;;;;;;;;;;15.20;84.80;;;;;;5047860;28;20281;-68
2023/05/05 03:59:19;;;;;;;;;;;15.10;85.50;;;;;;5047988;28;19916;-68
2023/05/05 04:01:45;;;;;;;;;;;15.10;84.80;;;;;;5047993;28;19913;-68
2023/05/05 04:04:11;;;;;;;;;;;15.10;85.00;;;;;;5047791;28;19943;-68
2023/05/05 04:06:36;;;;;;;;;;;15.10;85.00;;;;;;5048090;28;19944;-68
2023/05/05 04:09:02;;;;;;;;;;;15.10;85.00;;;;;;5047905;28;19966;-69
2023/05/05 04:11:27;;;;;;;;;;;15.10;85.00;;;;;;5047917;28;19913;-68
2023/05/05 04:13:53;;;;;;;;;;;15.10;85.10;;;;;;5047090;28;20007;-68
2023/05/05 04:16:18;;;;;;;;;;;15.10;85.10;;;;;;5029685;28;20044;-68
2023/05/05 04:18:44;;;;;;;;;;;15.10;85.00;;;;;;5047749;28;20653;-68
2023/05/05 04:21:09;;;;;;;;;;;15.10;85.10;;;;;;5047459;28;19965;-68
2023/05/05 04:23:35;;;;;;;;;;;15.00;85.00;;;;;;5047238;28;19916;-68
2023/05/05 04:26:00;;;;;;;;;;;15.00;85.10;;;;;;5047616;28;19917;-68
2023/05/05 04:28:26;;;;;;;;;;;15.10;85.10;;;;;;5047547;28;19936;-68
2023/05/05 04:30:51;;;;;;;;;;;15.00;85.30;;;;;;5047265;28;19966;-68
2023/05/05 04:33:17;;;;;;;;;;;15.00;85.30;;;;;;5029277;28;20415;-68
2023/05/05 04:35:42;;;;;;;;;;;15.00;85.30;;;;;;5047483;28;19912;-68
2023/05/05 04:38:08;;;;;;;;;;;15.00;85.30;;;;;;5047342;28;20409;-69
2023/05/05 04:40:37;;;;;;;;;;;15.00;85.60;;;;;;5047154;28;20382;-68
2023/05/05 04:43:02;;;;;;;;;;;15.00;85.70;;;;;;5046851;28;20277;-68
2023/05/05 04:45:27;;;;;;;;;;;14.90;85.60;;;;;;5047187;28;20012;-68
2023/05/05 04:47:53;;;;;;;;;;;14.90;85.70;;;;;;5046880;28;19920;-68
2023/05/05 04:50:19;;;;;;;;;;;14.90;85.70;;;;;;5046429;28;20445;-68
2023/05/05 04:52:44;;;;;;;;;;;14.90;85.70;;;;;;5028925;28;20015;-68
2023/05/05 04:55:10;;;;;;;;;;;14.90;85.60;;;;;;5042921;28;20004;-68
2023/05/05 04:57:35;;;;;;;;;;;14.90;85.60;;;;;;5028821;28;19912;-68
2023/05/05 05:00:03;;;;;;;;;;;14.80;85.60;;;;;;5047142;28;19909;-69
2023/05/05 05:02:29;;;;;;;;;;;14.90;85.80;;;;;;5046831;28;19913;-68
2023/05/05 05:04:54;;;;;;;;;;;14.80;85.70;;;;;;5046675;28;20234;-68
2023/05/05 05:07:20;;;;;;;;;;;14.80;85.70;;;;;;5047139;28;19962;-68
2023/05/05 05:09:45;;;;;;;;;;;14.80;85.70;;;;;;5047147;28;19931;-68
2023/05/05 05:12:11;;;;;;;;;;;14.80;85.70;;;;;;5046941;28;19913;-68
2023/05/05 05:14:36;;;;;;;;;;;14.80;85.80;;;;;;5047180;28;19913;-68
2023/05/05 05:17:02;;;;;;;;;;;14.80;85.70;;;;;;5047125;28;19915;-68
2023/05/05 05:19:28;;;;;;;;;;;14.80;85.70;;;;;;5047053;28;19912;-68
2023/05/05 05:21:53;;;;;;;;;;;14.80;86.30;;;;;;5046659;28;19920;-68
2023/05/05 05:24:19;;;;;;;;;;;14.80;85.90;;;;;;5046785;28;20675;-69
2023/05/05 05:26:44;;;;;;;;;;;14.80;85.90;;;;;;5046991;28;19913;-68
2023/05/05 05:29:10;;;;;;;;;;;14.80;85.70;;;;;;5029041;28;19932;-69
2023/05/05 05:31:35;;;;;;;;;;;14.80;85.70;;;;;;5046726;28;19913;-68
2023/05/05 05:34:01;;;;;;;;;;;14.80;85.60;;;;;;5046398;28;19997;-68
2023/05/05 05:36:26;;;;;;;;;;;14.80;85.70;;;;;;5046430;28;20015;-69
2023/05/05 05:38:52;;;;;;;;;;;14.80;85.60;;;;;;5046596;28;20003;-68
2023/05/05 05:41:17;;;;;;;;;;;14.80;85.60;;;;;;5046443;28;20015;-68
2023/05/05 05:43:43;;;;;;;;;;;14.80;85.70;;;;;;5046244;28;19966;-68
2023/05/05 05:46:09;;;;;;;;;;;14.80;85.70;;;;;;5046444;28;19920;-68
2023/05/05 05:48:34;;;;;;;;;;;14.80;85.70;;;;;;5046747;28;19965;-68
2023/05/05 05:51:01;;;;;;;;;;;14.80;85.50;;;;;;5046394;28;19913;-68
2023/05/05 05:53:26;;;;;;;;;;;14.80;85.50;;;;;;5028301;28;19912;-68
2023/05/05 05:55:52;;;;;;;;;;;14.80;85.50;;;;;;5041935;28;20012;-68
2023/05/05 05:58:18;;;;;;;;;;;14.80;85.50;;;;;;5046341;28;19980;-68
2023/05/05 06:00:43;;;;;;;;;;;14.80;85.60;;;;;;5045856;28;19917;-68
2023/05/05 06:03:09;;;;;;;;;;;14.90;85.50;;;;;;5045837;28;19981;-68
2023/05/05 06:05:34;;;;;;;;;;;14.90;85.80;;;;;;5046088;28;19916;-69
2023/05/05 06:08:00;;;;;;;;;;;14.90;85.50;;;;;;5046174;28;19923;-68
2023/05/05 06:10:25;;;;;;;;;;;14.90;85.50;;;;;;5044658;28;19962;-68
2023/05/05 06:12:51;;;;;;;;;;;14.90;85.50;;;;;;5045558;28;19913;-68
2023/05/05 06:15:16;;;;;;;;;;;14.90;86.10;;;;;;5045903;28;19917;-68
2023/05/05 06:17:42;;;;;;;;;;;14.90;85.30;;;;;;5045937;28;19912;-68
2023/05/05 06:20:08;;;;;;;;;;;14.90;85.50;;;;;;5046045;28;19913;-68
2023/05/05 06:22:33;;;;;;;;;;;15.00;85.60;;;;;;5045470;28;20007;-69
2023/05/05 06:24:59;;;;;;;;;;;14.90;85.40;;;;;;5045869;28;19919;-68
2023/05/05 06:27:25;;;;;;;;;;;15.00;85.30;;;;;;5046164;28;20430;-68
2023/05/05 06:29:50;;;;;;;;;;;15.00;85.30;;;;;;5045883;28;20731;-68
2023/05/05 06:32:16;;;;;;;;;;;15.10;85.30;;;;;;5045513;28;19913;-68
2023/05/05 06:34:43;;;;;;;;;;;15.00;85.20;;;;;;5045741;28;19909;-68
2023/05/05 06:37:09;;;;;;;;;;;15.10;85.20;;;;;;5045466;28;19917;-68
2023/05/05 06:39:35;;;;;;;;;;;15.10;85.40;;;;;;5045591;28;19985;-68
2023/05/05 06:42:00;;;;;;;;;;;15.10;85.40;;;;;;5045400;28;19924;-68
2023/05/05 06:44:27;;;;;;;;;;;15.10;85.20;;;;;;5027473;28;19934;-68
2023/05/05 06:46:52;;;;;;;;;;;15.20;85.20;;;;;;5028187;28;20601;-68
2023/05/05 06:49:18;;;;;;;;;;;15.20;85.10;;;;;;5045961;28;19913;-68
2023/05/05 06:51:43;;;;;;;;;;;15.20;85.00;;;;;;5045605;28;20359;-68
2023/05/05 06:54:09;;;;;;;;;;;15.30;85.10;;;;;;5045188;28;19913;-68
2023/05/05 06:56:35;;;;;;;;;;;15.30;85.10;;;;;;5044962;28;19931;-68
2023/05/05 06:59:00;;;;;;;;;;;15.30;85.20;;;;;;5060839;27;20297;-68
2023/05/05 07:01:26;;;;;;;;;;;15.40;85.10;;;;;;5045458;27;19944;-68
2023/05/05 07:03:51;;;;;;;;;;;15.40;85.10;;;;;;5045163;28;19913;-68
2023/05/05 07:06:17;;;;;;;;;;;15.40;85.20;;;;;;5045594;28;19913;-68
2023/05/05 07:08:42;;;;;;;;;;;15.40;85.10;;;;;;5045645;28;19965;-69
2023/05/05 07:11:07;;;;;;;;;;;15.50;85.30;;;;;;5045274;28;20377;-69
2023/05/05 07:13:33;;;;;;;;;;;15.50;85.10;;;;;;5048447;28;19912;-68
2023/05/05 07:15:59;;;;;;;;;;;15.50;85.10;;;;;;5048892;28;19990;-68
2023/05/05 07:18:24;;;;;;;;;;;15.50;85.00;;;;;;5064274;28;19912;-68
2023/05/05 07:20:50;;;;;;;;;;;15.60;85.00;;;;;;5048800;28;19913;-69
2023/05/05 07:23:15;;;;;;;;;;;15.60;84.80;;;;;;5030812;28;20361;-68
2023/05/05 07:25:41;;;;;;;;;;;15.60;84.90;;;;;;5048526;28;19909;-69
2023/05/05 07:28:06;;;;;;;;;;;15.70;84.90;;;;;;5048749;28;20369;-68
2023/05/05 07:30:32;;;;;;;;;;;15.70;84.90;;;;;;5048474;28;19917;-68
2023/05/05 07:32:57;;;;;;;;;;;15.70;85.00;;;;;;5048336;28;19913;-68
2023/05/05 07:35:23;;;;;;;;;;;15.80;85.10;;;;;;5048711;28;19913;-68
2023/05/05 07:37:49;;;;;;;;;;;15.80;85.10;;;;;;5048395;28;19919;-69
2023/05/05 07:40:15;;;;;;;;;;;15.80;85.10;;;;;;5048359;28;19913;-68
2023/05/05 07:42:40;;;;;;;;;;;15.80;85.00;;;;;;5048061;28;20420;-68
2023/05/05 07:45:06;;;;;;;;;;;15.90;85.10;;;;;;5048339;28;19909;-68
2023/05/05 07:47:31;;;;;;;;;;;15.90;85.20;;;;;;5048102;28;19919;-68
2023/05/05 07:49:57;;;;;;;;;;;15.90;85.40;;;;;;5048385;28;20368;-68
2023/05/05 07:52:22;;;;;;;;;;;16.00;85.20;;;;;;5048043;28;19923;-68
2023/05/05 07:54:48;;;;;;;;;;;16.00;85.20;;;;;;5044063;28;20553;-68
2023/05/05 07:57:14;;;;;;;;;;;16.00;85.10;;;;;;5030013;28;19967;-68
2023/05/05 07:59:42;;;;;;;;;;;16.00;85.00;;;;;;5047899;28;19913;-68
2023/05/05 08:02:08;;;;;;;;;;;16.10;85.00;;;;;;5047896;28;19917;-69
2023/05/05 08:04:34;;;;;;;;;;;16.10;85.00;;;;;;5047442;28;19916;-68
2023/05/05 08:06:59;;;;;;;;;;;16.20;84.90;;;;;;5048213;28;20266;-68
2023/05/05 08:09:25;;;;;;;;;;;16.20;84.90;;;;;;5029939;28;19916;-68
2023/05/05 08:11:50;;;;;;;;;;;16.20;84.80;;;;;;5047711;28;19916;-69
2023/05/05 08:14:16;;;;;;;;;;;16.30;84.80;;;;;;5047683;28;20084;-69
2023/05/05 08:16:41;;;;;;;;;;;16.30;84.90;;;;;;5048079;28;19919;-69
2023/05/05 08:19:07;;;;;;;;;;;16.30;84.90;;;;;;5047752;28;20378;-69
2023/05/05 08:21:32;;;;;;;;;;;16.40;84.90;;;;;;5047746;28;19917;-69
2023/05/05 08:23:58;;;;;;;;;;;16.40;85.00;;;;;;5047421;28;19924;-68
2023/05/05 08:26:23;;;;;;;;;;;16.40;84.80;;;;;;5047774;28;20484;-68
2023/05/05 08:28:49;;;;;;;;;;;16.50;84.90;;;;;;5047381;28;19920;-68
2023/05/05 08:31:14;;;;;;;;;;;16.50;84.60;;;;;;5047387;28;19956;-69
2023/05/05 08:33:40;;;;;;;;;;;16.50;84.50;;;;;;5029294;28;19916;-68
2023/05/05 08:36:06;;;;;;;;;;;16.60;84.60;;;;;;5047633;28;20277;-69
2023/05/05 08:38:31;;;;;;;;;;;16.60;84.50;;;;;;5047067;28;19960;-69
2023/05/05 08:40:57;;;;;;;;;;;16.70;84.50;;;;;;5047014;28;20304;-68
2023/05/05 08:43:23;;;;;;;;;;;16.70;84.60;;;;;;5028619;28;19928;-69
2023/05/05 08:45:50;;;;;;;;;;;16.70;84.30;;;;;;5046162;28;19913;-69
2023/05/05 08:48:17;;;;;;;;;;;16.80;84.30;;;;;;5047250;28;19909;-69
2023/05/05 08:50:45;;;;;;;;;;;16.80;84.30;;;;;;5047529;28;19917;-68
2023/05/05 08:53:15;;;;;;;;;;;16.90;84.40;;;;;;5047397;28;19985;-68
2023/05/05 08:55:50;;;;;;;;;;;16.90;84.20;;;;;;5043237;28;20338;-69
2023/05/05 08:58:20;;;;;;;;;;;16.90;84.00;;;;;;5047159;28;19943;-68
2023/05/05 09:00:45;;;;;;;;;;;17.00;84.00;;;;;;5047122;28;19916;-69
2023/05/05 09:03:11;;;;;;;;;;;17.00;84.10;;;;;;5047027;28;19913;-69
2023/05/05 09:05:37;;;;;;;;;;;17.00;84.30;;;;;;5029279;28;19924;-69
2023/05/05 09:08:08;;;;;;;;;;;17.00;84.20;;;;;;5044099;28;19917;-69
2023/05/05 09:10:35;;;;;;;;;;;17.10;84.00;;;;;;5046875;28;20604;-69
2023/05/05 09:13:02;;;;;;;;;;;17.10;83.80;;;;;;5041333;28;20254;-69
2023/05/05 09:15:28;;;;;;;;;;;17.10;84.00;;;;;;5017157;28;19924;-68
2023/05/05 09:17:55;;;;;;;;;;;17.10;83.90;;;;;;5045108;28;19921;-69
2023/05/05 09:20:21;;;;;;;;;;;17.20;84.00;;;;;;5046920;28;19913;-68
2023/05/05 09:22:46;;;;;;;;;;;17.20;83.90;;;;;;5046480;28;20375;-69
2023/05/05 09:25:13;;;;;;;;;;;17.20;83.80;;;;;;5046607;28;19934;-69
2023/05/05 09:27:45;;;;;;;;;;;17.30;83.90;;;;;;5046354;28;20003;-69
2023/05/05 09:30:18;;;;;;;;;;;17.30;83.90;;;;;;5045937;28;19917;-68
2023/05/05 09:32:47;;;;;;;;;;;17.40;83.50;;;;;;5044325;28;20453;-68
2023/05/05 09:35:13;;;;;;;;;;;17.50;84.00;;;;;;5008074;28;19909;-69
2023/05/05 09:37:39;;;;;;;;;;;17.50;83.40;;;;;;5008717;28;19913;-69
2023/05/05 09:40:07;;;;;;;;;;;17.60;83.50;;;;;;5008546;28;19989;-69
2023/05/05 09:42:37;;;;;;;;;;;17.60;83.40;;;;;;5045611;28;19981;-68
2023/05/05 09:45:26;;;;;;;;;;;17.60;83.50;;;;;;5036439;27;19932;-69
2023/05/05 09:47:52;;;;;;;;;;;17.60;83.60;;;;;;5031609;27;19945;-69
2023/05/05 09:50:17;;;;;;;;;;;17.70;83.40;;;;;;5033377;27;19963;-69
2023/05/05 09:52:56;;;;;;;;;;;17.70;83.30;;;;;;5045012;28;19917;-69
2023/05/05 09:55:22;;;;;;;;;;;17.80;83.20;;;;;;5044069;28;19924;-69
2023/05/05 09:57:48;;;;;;;;;;;17.80;83.40;;;;;;5031374;28;19917;-69
2023/05/05 10:00:13;;;;;;;;;;;17.90;83.20;;;;;;5046000;28;19913;-69
2023/05/05 10:02:39;;;;;;;;;;;17.90;83.40;;;;;;5045682;28;19912;-69
2023/05/05 10:05:12;;;;;;;;;;;17.90;83.30;;;;;;5045995;28;19958;-69
2023/05/05 10:07:38;;;;;;;;;;;17.90;83.50;;;;;;5028165;28;19924;-69
2023/05/05 10:10:04;;;;;;;;;;;17.90;83.40;;;;;;5027384;28;19965;-69
2023/05/05 10:12:30;;;;;;;;;;;17.90;83.30;;;;;;5045021;28;20349;-69
2023/05/05 10:14:56;;;;;;;;;;;18.00;83.20;;;;;;5045529;28;19988;-69
2023/05/05 10:17:22;;;;;;;;;;;18.10;83.10;;;;;;5027727;28;19919;-69
2023/05/05 10:19:51;;;;;;;;;;;18.20;83.30;;;;;;5027784;28;19965;-69
2023/05/05 10:22:17;;;;;;;;;;;18.20;83.00;;;;;;5043334;27;20356;-69
2023/05/05 10:24:49;;;;;;;;;;;18.20;82.90;;;;;;5045350;28;20285;-69
2023/05/05 10:27:17;;;;;;;;;;;18.30;82.90;;;;;;5045683;28;19999;-69
2023/05/05 10:29:45;;;;;;;;;;;18.30;83.20;;;;;;5045576;28;19912;-69
2023/05/05 10:32:15;;;;;;;;;;;18.30;82.90;;;;;;5045090;28;19913;-69
2023/05/05 10:34:48;;;;;;;;;;;18.50;82.70;;;;;;5045546;28;19912;-69
2023/05/05 10:37:15;;;;;;;;;;;18.60;82.80;;;;;;5045411;28;19913;-69
2023/05/05 10:39:41;;;;;;;;;;;18.80;82.40;;;;;;5045237;28;19953;-69
2023/05/05 10:42:07;;;;;;;;;;;18.90;82.10;;;;;;5044896;28;19916;-69
2023/05/05 10:44:32;;;;;;;;;;;19.00;81.80;;;;;;5045397;28;19965;-69
2023/05/05 10:46:58;;;;;;;;;;;19.00;82.10;;;;;;5045366;28;19928;-69
2023/05/05 10:49:23;;;;;;;;;;;19.00;81.90;;;;;;5027165;28;20597;-69
2023/05/05 10:51:58;;;;;;;;;;;18.90;82.10;;;;;;5044369;28;19921;-69
2023/05/05 10:54:31;;;;;;;;;;;19.00;82.40;;;;;;5041822;28;19916;-69
2023/05/05 10:56:57;;;;;;;;;;;19.10;82.20;;;;;;5044626;28;19909;-69
2023/05/05 10:59:38;;;;;;;;;;;19.30;81.80;;;;;;5042108;28;19916;-69
2023/05/05 11:02:25;;;;;;;;;;;19.30;81.60;;;;;;5044825;28;19912;-69
2023/05/05 11:05:11;;;;;;;;;;;19.30;81.80;;;;;;5042821;28;19916;-69
2023/05/05 11:07:36;;;;;;;;;;;19.40;81.90;;;;;;5043297;28;20310;-69
2023/05/05 11:10:03;;;;;;;;;;;19.50;81.90;;;;;;5044498;28;19977;-69
2023/05/05 11:12:30;;;;;;;;;;;19.50;81.70;;;;;;5043876;28;20619;-69
2023/05/05 11:15:14;;;;;;;;;;;19.60;81.70;;;;;;5044746;28;19976;-69
2023/05/05 11:17:42;;;;;;;;;;;19.60;81.80;;;;;;5025381;28;19913;-69
2023/05/05 11:20:08;;;;;;;;;;;19.70;81.70;;;;;;5040956;27;19916;-69
2023/05/05 11:22:53;;;;;;;;;;;19.70;81.50;;;;;;5024800;28;19929;-69
2023/05/05 11:25:39;;;;;;;;;;;19.80;81.30;;;;;;5024897;28;19913;-69
2023/05/05 11:28:05;;;;;;;;;;;19.80;81.10;;;;;;5025313;28;19913;-69
2023/05/05 11:30:31;;;;;;;;;;;19.90;81.20;;;;;;5007340;28;20324;-69
2023/05/05 11:33:15;;;;;;;;;;;19.90;81.30;;;;;;5025221;28;19909;-69
2023/05/05 11:35:53;;;;;;;;;;;19.90;81.40;;;;;;5025236;28;19917;-69
2023/05/05 11:38:22;;;;;;;;;;;20.00;81.30;;;;;;5025125;28;19924;-70
2023/05/05 11:40:48;;;;;;;;;;;19.90;81.60;;;;;;5012097;28;20409;-69
2023/05/05 11:43:17;;;;;;;;;;;19.90;81.50;;;;;;5044318;28;19913;-69
2023/05/05 11:45:43;;;;;;;;;;;19.90;81.70;;;;;;5044143;28;19920;-69
2023/05/05 11:48:27;;;;;;;;;;;19.90;81.60;;;;;;5044364;28;20281;-69
2023/05/05 11:50:52;;;;;;;;;;;19.90;82.40;;;;;;5026168;28;19912;-69
2023/05/05 11:53:18;;;;;;;;;;;19.90;81.90;;;;;;5043331;28;19941;-70
2023/05/05 11:55:44;;;;;;;;;;;19.90;81.90;;;;;;5043563;28;19960;-69
2023/05/05 11:58:19;;;;;;;;;;;19.90;81.90;;;;;;5046602;27;19919;-70
2023/05/05 12:00:44;;;;;;;;;;;19.90;81.20;;;;;;5111613;27;20455;-69
2023/05/05 12:03:10;;;;;;;;;;;19.90;81.90;;;;;;5108735;27;19942;-69
2023/05/05 12:05:35;;;;;;;;;;;19.90;82.20;;;;;;5092685;27;19946;-69
2023/05/05 12:08:01;;;;;;;;;;;19.90;82.00;;;;;;5094249;27;19913;-69
2023/05/05 12:10:27;;;;;;;;;;;19.90;82.10;;;;;;5104706;27;19915;-69
2023/05/05 12:12:52;;;;;;;;;;;19.90;82.40;;;;;;5059258;27;19921;-69
2023/05/05 12:15:26;;;;;;;;;;;19.90;82.60;;;;;;5046507;28;19909;-69
2023/05/05 12:17:51;;;;;;;;;;;19.80;82.60;;;;;;5046582;28;20395;-69
2023/05/05 12:20:27;;;;;;;;;;;19.70;82.60;;;;;;5037114;28;19991;-69
2023/05/05 12:22:58;;;;;;;;;;;19.70;82.90;;;;;;5046962;28;19928;-69
2023/05/05 12:25:23;;;;;;;;;;;19.70;83.10;;;;;;5045022;28;19923;-69
2023/05/05 12:27:52;;;;;;;;;;;19.60;83.20;;;;;;5037683;28;19921;-69
2023/05/05 12:30:17;;;;;;;;;;;19.60;83.40;;;;;;5037342;28;19920;-69
2023/05/05 12:32:43;;;;;;;;;;;19.60;83.60;;;;;;5046898;28;19921;-69
2023/05/05 12:35:10;;;;;;;;;;;19.50;83.80;;;;;;5037472;28;19919;-68
2023/05/05 12:37:35;;;;;;;;;;;19.40;84.10;;;;;;5047251;28;19957;-68
2023/05/05 12:40:01;;;;;;;;;;;19.30;84.10;;;;;;5047607;28;20254;-69
2023/05/05 12:42:26;;;;;;;;;;;19.20;84.20;;;;;;5046803;28;19916;-69
2023/05/05 12:44:52;;;;;;;;;;;19.20;84.60;;;;;;5046956;28;19921;-69
2023/05/05 12:47:30;;;;;;;;;;;19.10;84.70;;;;;;5047159;28;20011;-69
2023/05/05 12:49:56;;;;;;;;;;;19.10;84.90;;;;;;5045041;28;20393;-69
2023/05/05 12:52:21;;;;;;;;;;;19.00;84.80;;;;;;5037133;28;20007;-69
2023/05/05 12:54:58;;;;;;;;;;;18.90;85.10;;;;;;5051060;27;19916;-69
2023/05/05 12:57:23;;;;;;;;;;;18.90;85.30;;;;;;5064411;27;19924;-69
2023/05/05 12:59:49;;;;;;;;;;;18.80;84.80;;;;;;5111007;27;19913;-69
2023/05/05 13:02:15;;;;;;;;;;;18.80;85.30;;;;;;5104724;27;19915;-69
2023/05/05 13:04:49;;;;;;;;;;;18.70;85.40;;;;;;5112151;27;20376;-69
2023/05/05 13:07:15;;;;;;;;;;;18.70;85.40;;;;;;5095707;27;19915;-68
2023/05/05 13:09:41;;;;;;;;;;;18.60;85.40;;;;;;5104573;27;20357;-68
2023/05/05 13:12:12;;;;;;;;;;;18.60;85.50;;;;;;5095626;27;19920;-69
2023/05/05 13:14:38;;;;;;;;;;;18.60;85.40;;;;;;5113289;27;19949;-68
2023/05/05 13:17:03;;;;;;;;;;;18.60;85.40;;;;;;5107452;27;19948;-68
2023/05/05 13:19:29;;;;;;;;;;;18.60;85.40;;;;;;5038942;27;20011;-69
2023/05/05 13:21:55;;;;;;;;;;;18.60;85.40;;;;;;5045941;28;19921;-68
2023/05/05 13:24:21;;;;;;;;;;;18.60;85.30;;;;;;5047051;28;19920;-69
2023/05/05 13:26:47;;;;;;;;;;;18.60;85.30;;;;;;5046709;28;19919;-69
2023/05/05 13:29:12;;;;;;;;;;;18.60;85.40;;;;;;5029139;28;20303;-68
2023/05/05 13:31:38;;;;;;;;;;;18.60;85.50;;;;;;5046740;28;19923;-69
2023/05/05 13:34:03;;;;;;;;;;;18.60;85.40;;;;;;5028911;28;19917;-68
2023/05/05 13:36:31;;;;;;;;;;;18.60;85.70;;;;;;5046191;28;20236;-68
2023/05/05 13:38:57;;;;;;;;;;;18.70;85.70;;;;;;5028460;28;20335;-68
2023/05/05 13:41:22;;;;;;;;;;;18.70;85.90;;;;;;5036665;28;19912;-68
2023/05/05 13:43:48;;;;;;;;;;;18.70;85.70;;;;;;5046144;28;19909;-68
2023/05/05 13:46:13;;;;;;;;;;;18.70;86.30;;;;;;5046444;28;20331;-69
2023/05/05 13:48:39;;;;;;;;;;;18.70;86.10;;;;;;5046368;28;19912;-68
2023/05/05 13:51:05;;;;;;;;;;;18.70;86.50;;;;;;5046429;28;19917;-68
2023/05/05 13:53:30;;;;;;;;;;;18.70;86.50;;;;;;5046196;28;19913;-68
2023/05/05 13:55:56;;;;;;;;;;;18.70;86.50;;;;;;5011181;28;19909;-68
2023/05/05 13:58:22;;;;;;;;;;;18.70;86.60;;;;;;5046329;28;19913;-68
2023/05/05 14:00:47;;;;;;;;;;;18.70;86.60;;;;;;5046115;28;19916;-69
2023/05/05 14:03:13;;;;;;;;;;;18.80;86.80;;;;;;5046174;28;19909;-69
2023/05/05 14:05:41;;;;;;;;;;;18.70;87.00;;;;;;5028297;28;19913;-69
2023/05/05 14:08:10;;;;;;;;;;;18.80;86.90;;;;;;5046214;28;19924;-68
2023/05/05 14:10:35;;;;;;;;;;;18.80;86.90;;;;;;5046274;27;19916;-68
2023/05/05 14:13:02;;;;;;;;;;;18.80;87.00;;;;;;5045319;28;19913;-68
2023/05/05 14:15:28;;;;;;;;;;;18.80;86.80;;;;;;5029072;28;19952;-69
2023/05/05 14:17:54;;;;;;;;;;;18.90;86.90;;;;;;5046028;28;19947;-69